Time;durP1;ratioP1;P1;durP2;ratioP2;P2;SDS_P1;SDS_P2;PMS_P1;PMS_P2;Temp;Humidity;BMP_temperature;BMP_pressure;BME280_temperature;BME280_humidity;BME280_pressure;Samples;Min_cycle;Max_cycle;Signal;HPM_P1;HPM_P2
2022/05/23 00:01:18;;;;;;;4.40;2.10;;;;;;;;;;5025492;28;20037;-78
2022/05/23 00:03:43;;;;;;;6.75;2.40;;;;;;;16.13;66.78;68566.00;5030934;28;20038;-80
2022/05/23 00:06:09;;;;;;;5.82;2.08;;;;;;;;;;5035499;28;20041;-79
2022/05/23 00:08:35;;;;;;;4.25;2.33;;;;;;;16.08;66.49;68549.56;5037715;28;20045;-80
2022/05/23 00:11:00;;;;;;;11.60;2.47;;;;;;;;;;5037126;28;20052;-78
2022/05/23 00:13:27;;;;;;;5.40;1.83;;;;;;;16.08;66.79;68555.50;5037937;28;20589;-81
2022/05/23 00:15:52;;;;;;;5.28;2.20;;;;;;;16.05;67.05;68551.53;5034614;28;20668;-81
2022/05/23 00:18:18;;;;;;;7.55;2.40;;;;;;;16.05;67.03;68552.09;5018856;28;20087;-80
2022/05/23 00:20:43;;;;;;;6.53;2.20;;;;;;;16.06;67.20;68550.00;5027969;28;20056;-80
2022/05/23 00:23:08;;;;;;;9.35;2.20;;;;;;;;;;5026451;28;20104;-77
2022/05/23 00:25:34;;;;;;;5.93;2.03;;;;;;;;;;5030709;28;20140;-81
2022/05/23 00:27:59;;;;;;;3.65;2.00;;;;;;;15.99;68.00;68550.63;5027610;28;20076;-80
2022/05/23 00:30:26;;;;;;;5.32;1.90;;;;;;;16.00;67.77;68552.34;5030516;28;20068;-80
2022/05/23 00:35:38;;;;;;;5.88;2.28;;;;;;;15.99;68.10;68545.25;5029060;28;20044;-81
2022/05/23 00:38:03;;;;;;;5.22;2.08;;;;;;;;;;5028227;28;20068;-79
2022/05/23 00:40:41;;;;;;;4.85;2.10;;;;;;;15.96;68.45;68539.16;5024321;28;20140;-80
2022/05/23 00:43:21;;;;;;;4.63;2.03;;;;;;;15.94;68.63;68539.53;5007468;28;20049;-79
2022/05/23 00:45:52;;;;;;;3.80;2.20;;;;;;;15.92;68.53;68543.22;5010230;28;20042;-79
2022/05/23 00:48:22;;;;;;;9.38;2.28;;;;;;;;;;5009917;28;20049;-79
2022/05/23 00:50:53;;;;;;;4.45;2.20;;;;;;;;;;5036809;28;20049;-79
2022/05/23 00:53:26;;;;;;;5.78;2.17;;;;;;;15.90;69.05;68535.56;5013831;28;20038;-78
2022/05/23 00:55:52;;;;;;;6.60;2.20;;;;;;;;;;5027339;28;20113;-81
2022/05/23 00:58:20;;;;;;;5.15;2.33;;;;;;;;;;5029580;28;20130;-81
2022/05/23 01:00:46;;;;;;;6.53;2.97;;;;;;;15.87;69.48;68531.59;5025205;28;20061;-82
2022/05/23 01:03:15;;;;;;;5.40;2.42;;;;;;;15.86;69.78;68535.81;5031039;28;20052;-82
2022/05/23 01:05:40;;;;;;;9.25;2.53;;;;;;;15.83;70.16;68527.03;5030222;28;20426;-79
2022/05/23 01:08:06;;;;;;;4.45;2.15;;;;;;;15.81;70.79;68525.31;5025438;28;20056;-79
2022/05/23 01:10:33;;;;;;;6.43;2.85;;;;;;;;;;5025409;28;20384;-80
2022/05/23 01:12:58;;;;;;;7.13;2.85;;;;;;;15.74;71.57;68517.91;5029825;28;20044;-80
2022/05/23 01:15:26;;;;;;;7.28;3.10;;;;;;;15.74;72.12;68523.28;5006659;28;20045;-79
2022/05/23 01:17:52;;;;;;;5.88;2.75;;;;;;;15.70;72.36;68513.34;5014585;28;20033;-79
2022/05/23 01:20:18;;;;;;;8.95;3.17;;;;;;;;;;5021995;28;20044;-78
2022/05/23 01:22:49;;;;;;;7.00;3.00;;;;;;;;;;5019152;28;20041;-77
2022/05/23 01:25:22;;;;;;;8.20;2.60;;;;;;;;;;5025895;28;20458;-79
2022/05/23 01:27:49;;;;;;;6.05;2.50;;;;;;;15.61;75.64;68502.50;5024623;28;20041;-78
2022/05/23 01:30:15;;;;;;;5.15;2.85;;;;;;;;;;5027368;28;20064;-79
2022/05/23 01:32:41;;;;;;;7.20;2.58;;;;;;;;;;5024378;28;20073;-79
2022/05/23 01:35:08;;;;;;;6.03;2.90;;;;;;;15.54;76.06;68500.47;5027435;28;20060;-79
2022/05/23 01:37:33;;;;;;;7.88;2.97;;;;;;;;;;5027870;28;20642;-78
2022/05/23 01:39:59;;;;;;;6.57;3.10;;;;;;;15.48;76.66;68488.84;5022680;28;20072;-78
2022/05/23 01:42:24;;;;;;;7.90;3.03;;;;;;;15.48;77.03;68494.19;5014936;28;20042;-77
2022/05/23 01:44:49;;;;;;;8.30;3.10;;;;;;;15.47;76.65;68493.06;5014878;28;20124;-78
2022/05/23 01:47:20;;;;;;;7.82;3.20;;;;;;;15.44;76.74;68489.63;5032794;28;20044;-78
2022/05/23 01:49:45;;;;;;;7.53;2.97;;;;;;;;;;5023849;28;20041;-78
2022/05/23 01:52:11;;;;;;;6.97;3.65;;;;;;;15.42;76.65;68487.38;5024590;28;20096;-77
2022/05/23 01:54:36;;;;;;;5.50;3.05;;;;;;;;;;5027094;28;20041;-77
2022/05/23 01:57:03;;;;;;;6.40;2.80;;;;;;;15.42;77.78;68482.00;5025028;28;20045;-78
2022/05/23 02:02:12;;;;;;;6.43;3.53;;;;;;;15.39;76.67;68478.56;5018378;28;20593;-78
2022/05/23 02:04:37;;;;;;;7.47;3.65;;;;;;;;;;5015311;28;20692;-79
2022/05/23 02:07:06;;;;;;;7.20;3.70;;;;;;;;;;5025050;28;20038;-78
2022/05/23 02:09:33;;;;;;;6.35;3.03;;;;;;;15.35;77.24;68474.03;5024246;28;20284;-78
2022/05/23 02:11:58;;;;;;;6.45;3.28;;;;;;;;;;5024995;28;20805;-77
2022/05/23 02:14:24;;;;;;;5.03;3.40;;;;;;;15.34;77.84;68478.81;5028959;28;20052;-77
2022/05/23 02:16:49;;;;;;;6.15;3.15;;;;;;;;;;5041521;28;20466;-79
2022/05/23 02:19:15;;;;;;;7.07;3.40;;;;;;;15.32;78.34;68471.16;5023550;28;20133;-79
2022/05/23 02:21:40;;;;;;;6.00;3.13;;;;;;;;;;5015541;28;20053;-78
2022/05/23 02:24:06;;;;;;;12.85;3.40;;;;;;;15.30;77.60;68473.69;5045667;28;20048;-80
2022/05/23 02:26:32;;;;;;;8.40;3.72;;;;;;;;;;5025847;28;20701;-78
2022/05/23 02:28:58;;;;;;;4.93;3.10;;;;;;;15.33;78.34;68477.09;5022703;28;20045;-77
2022/05/23 02:31:23;;;;;;;5.43;3.25;;;;;;;15.31;78.54;68475.41;5043612;28;20039;-77
2022/05/23 02:33:49;;;;;;;12.13;3.45;;;;;;;;;;5034240;28;20489;-78
2022/05/23 02:36:14;;;;;;;5.93;3.78;;;;;;;15.31;78.49;68470.03;5030086;28;20132;-78
2022/05/23 02:38:39;;;;;;;7.63;3.95;;;;;;;15.33;79.30;68477.69;5027086;28;20057;-79
2022/05/23 02:41:04;;;;;;;7.72;3.45;;;;;;;;;;5040063;28;20037;-79
2022/05/23 02:43:30;;;;;;;8.52;3.67;;;;;;;;;;5058897;28;20076;-79
2022/05/23 02:45:56;;;;;;;6.05;3.40;;;;;;;15.28;79.78;68472.00;5037895;28;20037;-78
2022/05/23 02:48:21;;;;;;;8.88;3.60;;;;;;;15.27;79.98;68470.28;5033905;28;20057;-78
2022/05/23 02:50:47;;;;;;;9.15;4.07;;;;;;;15.25;80.19;68470.69;5031673;28;20038;-79
2022/05/23 02:53:13;;;;;;;8.00;3.75;;;;;;;;;;5022906;28;20052;-78
2022/05/23 02:55:38;;;;;;;7.70;4.05;;;;;;;;;;5024117;28;20045;-78
2022/05/23 02:58:03;;;;;;;8.00;3.88;;;;;;;15.10;80.18;68446.69;5019570;28;20061;-79
2022/05/23 03:00:29;;;;;;;8.27;3.95;;;;;;;15.06;80.41;68447.50;5012588;28;20519;-78
2022/05/23 03:03:03;;;;;;;8.05;3.63;;;;;;;15.07;80.06;68443.25;5026347;28;20065;-79
2022/05/23 03:05:29;;;;;;;8.25;3.97;;;;;;;;;;5026631;28;20040;-80
2022/05/23 03:07:55;;;;;;;8.85;3.17;;;;;;;;;;5026493;28;20520;-78
2022/05/23 03:10:20;;;;;;;8.25;3.70;;;;;;;;;;5027826;28;20542;-79
2022/05/23 03:12:45;;;;;;;7.88;3.80;;;;;;;;;;5026270;28;20084;-79
2022/05/23 03:15:12;;;;;;;9.40;3.83;;;;;;;15.10;79.17;68446.09;5007149;28;20103;-77
2022/05/23 03:17:38;;;;;;;9.05;4.00;;;;;;;15.10;79.33;68451.47;5022592;28;20539;-79
2022/05/23 03:20:04;;;;;;;9.23;4.32;;;;;;;15.09;78.68;68445.53;5007035;28;20034;-78
2022/05/23 03:27:57;;;;;;;7.90;4.05;;;;;;;15.09;79.69;68450.34;5024947;28;20047;-79
2022/05/23 03:30:22;;;;;;;6.32;3.72;;;;;;;;;;5023150;28;20198;-78
2022/05/23 03:32:48;;;;;;;8.57;3.90;;;;;;;15.09;79.86;68450.91;5026881;28;20049;-79
2022/05/23 03:35:13;;;;;;;7.90;4.25;;;;;;;15.11;80.74;68453.19;5005608;28;20292;-79
2022/05/23 03:37:39;;;;;;;8.27;4.20;;;;;;;15.11;80.20;68453.19;5024188;28;20045;-79
2022/05/23 03:40:06;;;;;;;10.25;4.40;;;;;;;15.06;80.60;68442.13;5023682;28;20065;-79
2022/05/23 03:42:33;;;;;;;7.60;3.95;;;;;;;15.07;81.15;68443.25;5024911;28;20037;-79
2022/05/23 03:44:58;;;;;;;8.35;4.25;;;;;;;;;;5020233;28;20045;-80
2022/05/23 03:47:23;;;;;;;6.47;4.03;;;;;;;;;;5017505;28;20057;-78
2022/05/23 03:49:49;;;;;;;7.90;4.27;;;;;;;15.01;81.97;68441.78;5018810;28;20055;-80
2022/05/23 03:52:14;;;;;;;8.75;4.68;;;;;;;;;;5013929;28;20629;-79
2022/05/23 03:54:39;;;;;;;8.40;4.47;;;;;;;;;;5007158;28;20588;-78
2022/05/23 03:57:04;;;;;;;7.18;4.03;;;;;;;;;;5008087;28;20132;-79
2022/05/23 03:59:30;;;;;;;8.45;4.32;;;;;;;14.95;81.64;68429.59;5014879;28;20055;-80
2022/05/23 04:01:57;;;;;;;9.55;3.95;;;;;;;14.93;81.75;68427.31;5013377;28;20046;-80
2022/05/23 04:04:23;;;;;;;9.80;4.60;;;;;;;;;;5015030;28;20053;-77
2022/05/23 04:06:48;;;;;;;15.70;5.60;;;;;;;;;;5023626;28;20045;-78
2022/05/23 04:09:14;;;;;;;9.98;5.50;;;;;;;;;;5023893;28;20045;-80
2022/05/23 04:11:39;;;;;;;6.90;4.45;;;;;;;;;;5031196;28;20045;-79
2022/05/23 04:14:04;;;;;;;8.82;4.85;;;;;;;14.85;82.33;68424.16;5024479;28;20143;-80
2022/05/23 04:16:30;;;;;;;8.85;4.57;;;;;;;14.83;82.31;68421.88;5022604;28;20046;-81
2022/05/23 04:18:56;;;;;;;7.00;4.72;;;;;;;14.82;82.27;68414.81;5021470;28;20465;-81
2022/05/23 04:21:22;;;;;;;9.13;5.10;;;;;;;14.82;82.64;68420.16;5019391;28;20052;-81
2022/05/23 04:23:48;;;;;;;7.82;4.38;;;;;;;;;;5023441;28;20041;-81
2022/05/23 04:26:13;;;;;;;7.25;4.63;;;;;;;14.83;82.47;68421.31;5018040;28;20132;-84
2022/05/23 04:28:39;;;;;;;7.70;4.70;;;;;;;14.85;82.59;68423.59;5017907;28;20513;-82
2022/05/23 04:31:06;;;;;;;10.00;5.20;;;;;;;14.86;82.59;68419.34;5016998;28;20124;-79
2022/05/23 04:36:15;;;;;;;6.80;4.95;;;;;;;14.89;82.13;68428.13;5017613;28;20047;-82
2022/05/23 04:38:41;;;;;;;10.23;4.68;;;;;;;14.92;82.19;68426.19;5040107;28;20513;-81
2022/05/23 04:41:06;;;;;;;9.30;4.72;;;;;;;14.94;82.18;68433.84;5022816;28;20517;-80
2022/05/23 04:43:32;;;;;;;7.32;4.88;;;;;;;;;;5030128;28;20046;-82
2022/05/23 04:45:57;;;;;;;9.10;5.00;;;;;;;;;;5027893;28;20041;-79
2022/05/23 04:51:20;;;;;;;7.07;4.72;;;;;;;15.01;81.60;68436.44;5013197;28;20264;-78
2022/05/23 04:53:46;;;;;;;8.02;4.70;;;;;;;;;;5027310;28;20068;-78
2022/05/23 04:56:12;;;;;;;11.50;5.18;;;;;;;15.04;81.35;68439.84;5031281;28;20141;-80
2022/05/23 04:58:37;;;;;;;8.70;4.45;;;;;;;15.10;81.26;68443.44;5026802;28;20128;-78
2022/05/23 05:01:04;;;;;;;9.95;4.95;;;;;;;15.12;81.42;68448.97;5023714;28;20036;-82
2022/05/23 05:03:29;;;;;;;11.55;5.03;;;;;;;15.16;81.07;68457.75;5018043;28;20099;-80
2022/05/23 05:05:54;;;;;;;9.45;4.90;;;;;;;15.19;81.08;68461.16;5025758;28;20041;-81
2022/05/23 05:08:20;;;;;;;7.25;4.57;;;;;;;15.22;81.38;68459.22;5028504;28;20122;-79
2022/05/23 05:10:46;;;;;;;9.00;5.03;;;;;;;15.26;81.42;68469.69;5025820;28;20041;-79
2022/05/23 05:13:11;;;;;;;7.40;4.25;;;;;;;;;;5027410;28;20041;-80
2022/05/23 05:15:36;;;;;;;7.57;5.03;;;;;;;;;;5028623;28;20045;-78
2022/05/23 05:18:02;;;;;;;8.10;4.75;;;;;;;;;;5014385;28;20292;-79
2022/05/23 05:20:29;;;;;;;7.50;4.60;;;;;;;;;;5023006;28;20048;-79
2022/05/23 05:22:54;;;;;;;8.85;4.97;;;;;;;;;;5029548;28;20042;-79
2022/05/23 05:25:20;;;;;;;8.35;4.85;;;;;;;15.57;79.68;68507.13;5027388;28;20084;-80
2022/05/23 05:27:46;;;;;;;11.32;5.63;;;;;;;15.65;79.96;68513.00;5026077;28;20060;-79
2022/05/23 05:30:14;;;;;;;10.25;5.15;;;;;;;15.69;79.38;68517.00;5009149;28;20050;-79
2022/05/23 05:32:52;;;;;;;14.00;6.07;;;;;;;15.75;79.81;68523.84;5007517;28;20044;-82
2022/05/23 05:35:24;;;;;;;9.32;5.05;;;;;;;15.79;79.10;68528.41;5025694;28;20073;-79
2022/05/23 05:38:01;;;;;;;9.40;5.00;;;;;;;15.85;79.57;68535.22;5024856;28;20698;-80
2022/05/23 05:40:27;;;;;;;9.18;5.20;;;;;;;;;;5045323;28;20060;-78
2022/05/23 05:42:58;;;;;;;9.45;4.80;;;;;;;15.97;79.69;68542.97;5045465;28;20045;-80
2022/05/23 05:45:29;;;;;;;7.13;4.85;;;;;;;16.03;79.46;68555.19;5031340;28;20040;-80
2022/05/23 05:47:56;;;;;;;6.88;4.65;;;;;;;16.08;79.11;68563.00;5035769;28;20046;-80
2022/05/23 05:50:24;;;;;;;9.52;5.10;;;;;;;;;;5035446;28;20045;-79
2022/05/23 05:52:54;;;;;;;7.22;4.60;;;;;;;16.17;78.84;68565.78;5030387;28;20047;-79
2022/05/23 05:55:19;;;;;;;11.00;5.35;;;;;;;16.23;78.82;68572.03;5029122;28;20045;-78
2022/05/23 05:57:45;;;;;;;9.52;5.10;;;;;;;16.28;78.29;68582.53;5029475;28;20038;-78
2022/05/23 06:00:11;;;;;;;9.98;4.88;;;;;;;16.34;77.94;68589.38;5035381;28;20037;-79
2022/05/23 06:02:37;;;;;;;9.25;4.80;;;;;;;16.39;77.60;68595.09;5038663;28;20049;-80
2022/05/23 06:05:02;;;;;;;9.57;5.05;;;;;;;;;;5037911;28;20052;-80
2022/05/23 06:12:57;;;;;;;9.50;4.75;;;;;;;;;;5027874;28;20103;-79
2022/05/23 06:15:22;;;;;;;8.50;4.85;;;;;;;;;;5025433;28;20053;-78
2022/05/23 06:17:48;;;;;;;7.78;4.82;;;;;;;16.75;76.50;68635.56;5025736;28;20041;-79
2022/05/23 06:20:14;;;;;;;8.70;5.25;;;;;;;16.85;77.10;68641.03;5028264;28;20497;-79
2022/05/23 06:22:40;;;;;;;11.68;5.15;;;;;;;16.91;76.67;68647.88;5038220;28;20056;-79
2022/05/23 06:25:07;;;;;;;5.85;4.00;;;;;;;16.96;76.03;68658.41;5037405;28;20037;-79
2022/05/23 06:27:32;;;;;;;8.23;4.80;;;;;;;17.03;76.44;68661.00;5033867;28;20037;-80
2022/05/23 06:29:57;;;;;;;7.78;4.40;;;;;;;;;;5032169;28;20037;-79
2022/05/23 06:32:24;;;;;;;7.47;4.80;;;;;;;;;;5018030;28;20610;-79
2022/05/23 06:34:49;;;;;;;7.18;4.28;;;;;;;17.22;75.69;68688.06;5025532;28;20307;-79
2022/05/23 06:37:14;;;;;;;10.30;4.68;;;;;;;17.28;75.32;68694.31;5031741;28;20508;-79
2022/05/23 06:39:40;;;;;;;9.40;4.97;;;;;;;17.36;75.46;68698.06;5025861;28;20061;-79
2022/05/23 06:42:05;;;;;;;5.68;4.30;;;;;;;17.40;74.38;68699.94;5026582;28;20037;-78
2022/05/23 06:44:31;;;;;;;6.60;4.20;;;;;;;17.47;74.91;68710.63;5019147;28;20053;-79
2022/05/23 06:46:56;;;;;;;7.75;4.38;;;;;;;17.58;75.40;68730.69;5024976;28;20064;-79
2022/05/23 06:49:22;;;;;;;8.90;4.55;;;;;;;;;;5025802;28;20116;-78
2022/05/23 06:51:51;;;;;;;8.80;4.60;;;;;;;;;;5045969;28;20045;-79
2022/05/23 06:54:19;;;;;;;8.32;4.30;;;;;;;17.76;74.63;68740.44;5044749;28;20041;-78
2022/05/23 06:56:45;;;;;;;8.07;4.85;;;;;;;17.84;74.80;68751.16;5053369;28;20099;-79
2022/05/23 06:59:11;;;;;;;7.97;4.00;;;;;;;17.92;74.71;68758.16;5028648;28;20034;-77
2022/05/23 07:01:37;;;;;;;6.70;4.10;;;;;;;18.02;74.29;68772.28;5032929;28;20080;-78
2022/05/23 07:04:02;;;;;;;5.25;3.90;;;;;;;18.10;74.43;68786.22;5031011;28;20041;-79
2022/05/23 07:14:41;;;;;;;7.65;3.92;;;;;;;;;;5041907;28;20592;-77
2022/05/23 07:17:06;;;;;;;6.22;4.00;;;;;;;18.49;71.95;68824.22;5028076;28;20414;-77
2022/05/23 07:19:34;;;;;;;8.27;4.20;;;;;;;18.59;71.58;68832.94;5029881;28;20037;-79
2022/05/23 07:22:02;;;;;;;7.60;3.73;;;;;;;18.66;70.58;68843.63;5029466;28;20041;-79
2022/05/23 07:24:28;;;;;;;5.75;3.22;;;;;;;18.75;70.66;68853.34;5031346;28;20041;-77
2022/05/23 07:26:54;;;;;;;7.78;3.92;;;;;;;18.84;69.88;68868.44;5031755;28;20752;-78
2022/05/23 07:29:23;;;;;;;6.00;3.70;;;;;;;18.92;70.06;68872.19;5029193;28;20053;-80
2022/05/23 07:31:50;;;;;;;6.85;3.40;;;;;;;19.00;68.74;68880.78;5022553;28;20099;-80
2022/05/23 07:34:16;;;;;;;5.30;3.65;;;;;;;19.04;68.15;68891.28;5027665;28;20033;-79
2022/05/23 07:36:41;;;;;;;7.43;3.60;;;;;;;;;;5035461;28;20056;-79
2022/05/23 07:39:10;;;;;;;5.75;3.33;;;;;;;;;;5029814;28;20045;-78
2022/05/23 07:41:35;;;;;;;5.55;3.22;;;;;;;19.27;68.11;68911.59;5026132;28;20060;-79
2022/05/23 07:44:01;;;;;;;8.25;4.00;;;;;;;19.34;67.96;68924.44;5037150;28;20037;-78
2022/05/23 07:46:26;;;;;;;6.32;3.20;;;;;;;19.39;67.76;68922.63;5027275;28;20126;-80
2022/05/23 07:48:52;;;;;;;7.70;3.65;;;;;;;19.49;67.17;68936.19;5038650;28;20063;-79
2022/05/23 07:51:20;;;;;;;7.28;3.33;;;;;;;19.56;66.81;68943.59;5048907;28;20082;-78
2022/05/23 08:01:59;;;;;;;7.35;3.13;;;;;;;19.86;66.15;68977.34;5030828;28;20689;-79
2022/05/23 08:04:25;;;;;;;8.15;3.50;;;;;;;19.92;65.27;68983.63;5018731;28;20041;-78
2022/05/23 08:06:52;;;;;;;5.55;3.40;;;;;;;19.95;64.37;68987.06;5029379;28;20651;-78
2022/05/23 08:09:18;;;;;;;6.25;3.50;;;;;;;20.00;64.29;68993.34;5030663;28;20047;-79
2022/05/23 08:11:46;;;;;;;5.97;3.15;;;;;;;20.06;64.69;69000.19;5023986;28;20038;-78
2022/05/23 08:14:12;;;;;;;5.65;2.78;;;;;;;20.11;63.49;69005.34;5030554;28;20090;-80
2022/05/23 08:16:38;;;;;;;5.78;3.08;;;;;;;20.18;64.21;69012.78;5027340;28;20105;-78
2022/05/23 08:19:05;;;;;;;6.20;3.15;;;;;;;20.25;64.00;69021.38;5009006;28;20041;-77
2022/05/23 08:21:31;;;;;;;6.07;3.15;;;;;;;20.35;64.82;69026.25;5009848;28;20060;-79
2022/05/23 08:23:56;;;;;;;5.90;3.00;;;;;;;20.40;64.39;69034.66;5029988;28;20041;-78
2022/05/23 08:26:22;;;;;;;6.68;3.00;;;;;;;20.44;63.83;69042.50;5030030;28;20513;-79
2022/05/23 08:28:47;;;;;;;7.30;2.80;;;;;;;20.54;63.84;69052.81;5028966;28;20060;-77
2022/05/23 08:31:12;;;;;;;6.45;3.15;;;;;;;20.64;64.18;69058.84;5030594;28;20117;-78
2022/05/23 08:33:38;;;;;;;5.63;2.75;;;;;;;20.71;63.01;69069.53;5023845;28;20076;-79
2022/05/23 08:36:03;;;;;;;6.38;3.10;;;;;;;;;;5034605;28;20038;-77
2022/05/23 08:38:29;;;;;;;5.63;2.90;;;;;;;20.93;61.26;69094.16;5019594;28;20042;-80
2022/05/23 08:41:16;;;;;;;5.28;3.00;;;;;;;20.96;61.02;69097.56;5027791;28;20136;-76
2022/05/23 08:44:10;;;;;;;5.35;3.08;;;;;;;21.09;61.73;69109.16;5027276;28;20539;-79
2022/05/23 08:46:42;;;;;;;7.75;3.40;;;;;;;;;;4975520;28;20053;-78
2022/05/23 08:49:30;;;;;;;6.13;3.40;;;;;;;21.12;58.99;69115.88;5028142;28;20108;-79
2022/05/23 08:51:58;;;;;;;5.78;3.28;;;;;;;21.18;59.39;69124.88;5022882;28;20065;-79
2022/05/23 08:54:31;;;;;;;5.50;3.50;;;;;;;21.31;59.62;69139.75;5029246;28;20079;-79
2022/05/23 08:57:00;;;;;;;6.97;3.38;;;;;;;21.40;60.35;69154.91;5030207;28;20049;-79
2022/05/23 08:59:29;;;;;;;7.20;3.33;;;;;;;21.53;58.86;69164.38;5029755;28;20116;-79
2022/05/23 09:02:00;;;;;;;5.68;3.03;;;;;;;21.65;59.06;69174.84;5028841;28;20041;-78
2022/05/23 09:04:42;;;;;;;5.75;3.33;;;;;;;;;;5031042;28;20033;-79
2022/05/23 09:07:10;;;;;;;5.30;3.28;;;;;;;21.88;58.91;69202.72;5013407;28;20092;-78
2022/05/23 09:09:36;;;;;;;6.63;3.17;;;;;;;22.00;59.39;69213.75;5013409;28;20503;-79
2022/05/23 09:12:04;;;;;;;5.70;3.40;;;;;;;;;;5048967;23;20504;-82
2022/05/23 09:14:30;;;;;;;5.57;3.05;;;;;;;22.18;57.00;69231.09;5030148;28;20049;-83
2022/05/23 09:16:57;;;;;;;8.15;3.42;;;;;;;22.26;56.56;69246.25;5030573;28;20048;-82
2022/05/23 09:19:32;;;;;;;7.15;3.20;;;;;;;22.30;55.70;69250.25;5028933;28;20037;-82
2022/05/23 09:22:14;;;;;;;7.18;3.05;;;;;;;22.33;56.27;69258.53;5038162;28;20049;-84
2022/05/23 09:24:39;;;;;;;8.77;3.58;;;;;;;22.42;57.40;69263.44;5062665;28;20063;-85
2022/05/23 09:27:20;;;;;;;6.00;3.20;;;;;;;22.49;57.79;69272.00;5027861;28;20052;-82
2022/05/23 09:29:51;;;;;;;6.75;2.90;;;;;;;22.62;57.47;69280.91;5044129;28;20090;-83
2022/05/23 09:32:17;;;;;;;9.50;3.35;;;;;;;;;;5029904;28;20094;-82
2022/05/23 09:35:01;;;;;;;6.75;3.63;;;;;;;22.79;55.07;69301.94;5024232;28;20041;-82
2022/05/23 09:37:36;;;;;;;7.05;3.45;;;;;;;;;;5025758;28;20037;-83
2022/05/23 09:40:03;;;;;;;7.70;3.60;;;;;;;22.93;55.26;69315.25;5034519;28;20072;-82
2022/05/23 09:48:24;;;;;;;7.60;4.28;;;;;;;23.08;54.95;69337.91;5017342;28;20061;-83
2022/05/23 09:50:54;;;;;;;6.53;3.67;;;;;;;23.20;55.81;69348.91;5018449;28;20033;-82
2022/05/23 09:53:24;;;;;;;6.18;3.63;;;;;;;23.13;53.05;69343.03;5031104;28;20049;-82
2022/05/23 09:55:50;;;;;;;7.85;3.38;;;;;;;23.12;53.58;69341.91;5029990;28;20087;-81
2022/05/23 09:58:46;;;;;;;5.95;3.25;;;;;;;23.29;55.47;69360.81;5041757;28;20037;-82
2022/05/23 10:01:11;;;;;;;9.45;3.78;;;;;;;23.35;54.07;69359.53;5021412;28;20068;-82
2022/05/23 10:03:48;;;;;;;5.95;4.00;;;;;;;23.42;53.21;69370.84;5034643;28;20065;-82
2022/05/23 10:06:16;;;;;;;8.27;3.70;;;;;;;23.47;53.80;69376.00;5032603;28;20045;-81
2022/05/23 10:08:44;;;;;;;5.32;3.20;;;;;;;23.44;53.05;69375.28;5036612;28;20046;-81
2022/05/23 10:11:25;;;;;;;7.05;4.07;;;;;;;23.45;52.43;69375.84;5028095;28;20037;-81
2022/05/23 10:13:54;;;;;;;7.32;3.58;;;;;;;23.54;55.08;69386.16;5042530;28;20457;-80
2022/05/23 10:16:44;;;;;;;7.53;3.80;;;;;;;23.56;52.98;69391.16;5034556;28;20049;-81
2022/05/23 10:19:12;;;;;;;8.00;3.55;;;;;;;23.54;52.81;69386.75;5038250;28;20055;-81
2022/05/23 10:21:40;;;;;;;5.70;3.58;;;;;;;23.57;53.10;69392.31;5035415;28;20052;-82
2022/05/23 10:24:18;;;;;;;5.55;3.88;;;;;;;23.50;52.05;69384.28;5041007;28;20133;-80
2022/05/23 10:26:51;;;;;;;6.80;3.80;;;;;;;23.48;52.39;69377.16;5026623;28;20584;-80
2022/05/23 10:29:43;;;;;;;6.93;3.70;;;;;;;23.61;54.50;69394.19;5026362;28;20137;-81
2022/05/23 10:32:13;;;;;;;6.43;3.50;;;;;;;23.77;55.33;69411.97;5021225;28;20044;-80
2022/05/23 10:34:51;;;;;;;9.95;3.80;;;;;;;23.88;55.01;69424.59;5017237;28;20037;-82
2022/05/23 10:37:24;;;;;;;8.00;3.45;;;;;;;24.03;55.94;69443.94;5035806;28;20450;-81
2022/05/23 10:42:46;;;;;;;7.78;3.78;;;;;;;24.39;53.16;69484.03;5034405;28;20062;-80
2022/05/23 10:45:32;;;;;;;7.68;3.30;;;;;;;24.49;53.27;69490.66;5033509;28;20629;-80
2022/05/23 10:48:26;;;;;;;6.50;3.30;;;;;;;24.51;52.35;69490.25;5031853;28;20077;-81
2022/05/23 10:50:58;;;;;;;6.13;3.53;;;;;;;;;;5045496;28;20048;-80
2022/05/23 10:53:55;;;;;;;6.07;3.63;;;;;;;24.58;52.99;69499.84;5025773;28;20050;-82
2022/05/23 10:56:27;;;;;;;7.30;3.27;;;;;;;24.64;52.38;69509.44;5020954;28;20435;-84
2022/05/23 10:58:58;;;;;;;6.85;3.45;;;;;;;24.62;50.75;69509.88;5024229;28;20296;-80
2022/05/23 11:02:20;;;;;;;6.85;3.75;;;;;;;24.63;52.94;69506.16;5027360;28;20241;-81
2022/05/23 11:05:01;;;;;;;5.47;3.13;;;;;;;24.64;51.07;69510.03;4975024;28;20050;-81
2022/05/23 11:07:35;;;;;;;5.38;2.70;;;;;;;24.70;50.95;69516.31;4991288;28;20046;-81
2022/05/23 11:11:09;;;;;;;5.15;3.10;;;;;;;24.66;49.38;69515.03;5025062;28;20052;-80
2022/05/23 11:13:37;;;;;;;6.65;3.20;;;;;;;24.64;49.39;69507.28;4953996;28;20042;-81
2022/05/23 11:16:12;;;;;;;5.53;2.97;;;;;;;24.66;51.71;69512.31;5018774;28;20037;-85
2022/05/23 11:18:45;;;;;;;6.07;2.80;;;;;;;24.76;51.38;69523.78;5024562;28;20284;-81
2022/05/23 11:21:32;;;;;;;7.88;2.85;;;;;;;24.83;51.19;69533.97;5027178;28;20497;-83
2022/05/23 11:24:04;;;;;;;6.75;3.30;;;;;;;24.91;51.09;69543.13;5011886;28;20045;-81
2022/05/23 11:33:41;;;;;;;8.95;3.40;;;;;;;24.92;51.19;69544.28;5037369;28;20042;-81
2022/05/23 11:35:23;;;;;;;5.00;2.95;;;;;;;24.97;50.33;69547.31;5026395;28;20092;-81
2022/05/23 11:37:49;;;;;;;;;;;;;;;25.06;50.85;69553.75;5014220;28;20042;-81
2022/05/23 11:40:30;;;;;;;6.78;2.80;;;;;;;25.08;50.70;69561.50;5022607;28;20328;-81
2022/05/23 11:43:08;;;;;;;5.22;3.35;;;;;;;25.10;50.52;69561.63;5017681;28;20154;-81
2022/05/23 11:48:41;;;;;;;6.32;2.92;;;;;;;25.45;50.28;69603.38;5022965;28;20517;-81
2022/05/23 11:51:48;;;;;;;4.78;2.58;;;;;;;25.50;51.54;69603.09;5024587;28;20064;-81
2022/05/23 11:54:35;;;;;;;8.43;3.33;;;;;;;25.54;50.57;69607.69;5008542;28;20041;-81
2022/05/23 11:57:00;;;;;;;5.40;2.72;;;;;;;25.55;49.31;69608.81;5011625;28;20044;-81
2022/05/23 11:59:25;;;;;;;6.40;2.87;;;;;;;25.57;51.18;69611.13;5010323;28;20050;-81
2022/05/23 12:02:12;;;;;;;5.73;2.17;;;;;;;25.58;47.45;69615.59;5011861;28;20280;-81
2022/05/23 12:04:40;;;;;;;5.13;2.00;;;;;;;25.62;46.63;69622.31;5009916;28;20281;-81
2022/05/23 12:07:06;;;;;;;5.65;2.08;;;;;;;25.72;45.07;69625.63;5021438;28;20037;-82
2022/05/23 12:09:35;;;;;;;4.50;1.90;;;;;;;25.88;45.88;69644.00;5032109;28;20042;-81
2022/05/23 12:12:26;;;;;;;3.90;1.80;;;;;;;25.95;44.33;69656.34;5027346;28;20046;-81
2022/05/23 12:14:54;;;;;;;3.72;1.92;;;;;;;26.13;44.78;69679.19;5044937;28;20056;-81
2022/05/23 12:17:31;;;;;;;4.82;2.00;;;;;;;26.33;42.69;69699.41;5029897;28;20501;-82
2022/05/23 12:20:06;;;;;;;4.47;2.00;;;;;;;26.44;42.92;69712.03;5031486;28;20041;-81
2022/05/23 12:22:58;;;;;;;8.25;2.20;;;;;;;26.55;42.79;69727.41;5030614;28;20041;-81
2022/05/23 12:25:26;;;;;;;6.60;1.98;;;;;;;26.74;42.60;69745.94;5032658;28;20557;-81
2022/05/23 12:27:51;;;;;;;5.50;2.10;;;;;;;27.00;42.74;69771.91;5032055;28;20041;-81
2022/05/23 12:30:23;;;;;;;5.13;1.70;;;;;;;27.15;40.65;69794.63;5019062;28;20038;-84
2022/05/23 12:33:00;;;;;;;4.07;2.08;;;;;;;27.20;38.35;69800.38;5048724;28;20838;-84
2022/05/23 12:35:40;;;;;;;4.15;1.90;;;;;;;27.23;38.75;69797.78;5049871;28;20042;-83
2022/05/23 12:38:24;;;;;;;3.80;1.42;;;;;;;27.28;39.30;69805.69;5039191;28;20048;-84
2022/05/23 12:41:10;;;;;;;4.10;2.00;;;;;;;27.49;40.89;69832.53;5037777;28;20073;-83
2022/05/23 12:44:07;;;;;;;4.85;1.67;;;;;;;27.74;40.96;69857.41;5031985;28;20041;-84
2022/05/23 12:46:57;;;;;;;5.28;1.90;;;;;;;27.81;40.58;69862.72;5019310;28;20128;-82
2022/05/23 12:49:34;;;;;;;5.28;2.00;;;;;;;27.93;38.64;69876.50;5030083;28;20037;-83
2022/05/23 12:52:10;;;;;;;6.35;2.35;;;;;;;27.92;38.24;69875.34;5027699;28;20096;-82
2022/05/23 12:54:43;;;;;;;6.78;2.22;;;;;;;27.99;39.80;69882.81;5011863;28;20437;-82
2022/05/23 12:57:52;;;;;;;6.72;2.13;;;;;;;28.18;40.62;69907.41;5012398;28;20042;-82
2022/05/23 13:00:23;;;;;;;8.20;2.10;;;;;;;28.33;38.03;69921.34;5024167;28;20098;-82
2022/05/23 13:03:26;;;;;;;6.72;1.77;;;;;;;28.45;39.64;69934.56;5028130;28;20229;-82
2022/05/23 13:05:59;;;;;;;3.90;2.17;;;;;;;28.38;38.47;69923.78;5010518;28;20041;-81
2022/05/23 13:08:34;;;;;;;6.18;2.22;;;;;;;28.44;38.20;69934.00;5019614;28;20038;-81
2022/05/23 13:11:04;;;;;;;5.93;1.70;;;;;;;28.53;38.12;69955.31;5015800;28;20045;-81
2022/05/23 13:13:35;;;;;;;6.50;2.00;;;;;;;28.67;39.04;69959.88;5024569;28;20129;-81
2022/05/23 13:16:22;;;;;;;4.32;1.85;;;;;;;28.72;38.33;69971.09;5019332;28;20045;-81
2022/05/23 13:27:04;;;;;;;7.82;2.30;;;;;;;28.04;38.50;69888.56;5025088;28;20073;-81
2022/05/23 13:29:31;;;;;;;4.22;1.83;;;;;;;27.90;38.06;69876.34;5028465;28;20045;-82